sensor_id;sensor_type;location;lat;lon;timestamp;pressure;altitude;pressure_sealevel;temperature;humidity
31357;BME280;60001;48.404;11.738;2022-11-27T00:00:32;97548.47;;;1.44;87.16
31357;BME280;60001;48.404;11.738;2022-11-27T00:02:03;97548.81;;;1.41;87.43
31357;BME280;60001;48.404;11.738;2022-11-27T00:03:35;97550.63;;;1.40;87.13
31357;BME280;60001;48.404;11.738;2022-11-27T00:05:08;97545.56;;;1.38;87.35
31357;BME280;60001;48.404;11.738;2022-11-27T00:06:40;97549.13;;;1.37;87.56
31357;BME280;60001;48.404;11.738;2022-11-27T00:08:12;97555.81;;;1.40;87.31
31357;BME280;60001;48.404;11.738;2022-11-27T00:09:44;97549.63;;;1.41;87.76
31357;BME280;60001;48.404;11.738;2022-11-27T00:11:18;97547.84;;;1.42;87.68
31357;BME280;60001;48.404;11.738;2022-11-27T00:12:52;97537.09;;;1.36;87.83
31357;BME280;60001;48.404;11.738;2022-11-27T00:14:27;97542.47;;;1.35;87.85
31357;BME280;60001;48.404;11.738;2022-11-27T00:15:59;97554.66;;;1.43;87.75
31357;BME280;60001;48.404;11.738;2022-11-27T00:17:31;97553.34;;;1.38;87.35
31357;BME280;60001;48.404;11.738;2022-11-27T00:19:03;97556.47;;;1.42;87.70
31357;BME280;60001;48.404;11.738;2022-11-27T00:20:35;97553.06;;;1.42;87.37
31357;BME280;60001;48.404;11.738;2022-11-27T00:22:07;97549.94;;;1.38;87.47
31357;BME280;60001;48.404;11.738;2022-11-27T00:23:39;97539.38;;;1.31;87.17
31357;BME280;60001;48.404;11.738;2022-11-27T00:25:11;97563.47;;;1.33;87.33
31357;BME280;60001;48.404;11.738;2022-11-27T00:26:43;97553.53;;;1.29;86.58
31357;BME280;60001;48.404;11.738;2022-11-27T00:28:17;97547.69;;;1.27;86.81
31357;BME280;60001;48.404;11.738;2022-11-27T00:29:48;97548.66;;;1.26;87.10
31357;BME280;60001;48.404;11.738;2022-11-27T00:31:23;97549.78;;;1.23;87.04
31357;BME280;60001;48.404;11.738;2022-11-27T00:32:56;97542.16;;;1.22;86.63
31357;BME280;60001;48.404;11.738;2022-11-27T00:34:28;97537.91;;;1.21;87.30
31357;BME280;60001;48.404;11.738;2022-11-27T00:36:01;97543.78;;;1.23;87.47
31357;BME280;60001;48.404;11.738;2022-11-27T00:37:33;97537.28;;;1.19;87.52
31357;BME280;60001;48.404;11.738;2022-11-27T00:39:09;97542.31;;;1.28;87.89
31357;BME280;60001;48.404;11.738;2022-11-27T00:40:41;97537.91;;;1.29;87.86
31357;BME280;60001;48.404;11.738;2022-11-27T00:42:12;97528.50;;;1.28;87.05
31357;BME280;60001;48.404;11.738;2022-11-27T00:43:47;97528.16;;;1.23;87.53
31357;BME280;60001;48.404;11.738;2022-11-27T00:45:19;97524.75;;;1.22;87.13
31357;BME280;60001;48.404;11.738;2022-11-27T00:46:50;97518.91;;;1.20;87.00
31357;BME280;60001;48.404;11.738;2022-11-27T00:48:22;97521.00;;;1.17;86.96
31357;BME280;60001;48.404;11.738;2022-11-27T00:49:54;97517.75;;;1.15;86.59
31357;BME280;60001;48.404;11.738;2022-11-27T00:51:27;97520.53;;;1.13;86.62
31357;BME280;60001;48.404;11.738;2022-11-27T00:53:02;97522.44;;;1.11;87.03
31357;BME280;60001;48.404;11.738;2022-11-27T00:54:37;97529.78;;;1.07;87.00
31357;BME280;60001;48.404;11.738;2022-11-27T00:56:14;97525.06;;;1.03;86.99
31357;BME280;60001;48.404;11.738;2022-11-27T00:57:45;97524.25;;;1.02;87.33
31357;BME280;60001;48.404;11.738;2022-11-27T00:59:18;97516.59;;;1.01;87.53
31357;BME280;60001;48.404;11.738;2022-11-27T01:00:53;97508.00;;;1.00;87.59
31357;BME280;60001;48.404;11.738;2022-11-27T01:02:24;97519.22;;;1.01;88.00
31357;BME280;60001;48.404;11.738;2022-11-27T01:03:58;97505.41;;;1.00;88.54
31357;BME280;60001;48.404;11.738;2022-11-27T01:05:30;97507.19;;;1.00;87.90
31357;BME280;60001;48.404;11.738;2022-11-27T01:07:02;97503.09;;;0.97;88.26
31357;BME280;60001;48.404;11.738;2022-11-27T01:08:34;97512.22;;;1.01;87.81
31357;BME280;60001;48.404;11.738;2022-11-27T01:10:07;97506.53;;;0.98;87.99
31357;BME280;60001;48.404;11.738;2022-11-27T01:11:39;97510.75;;;0.99;88.01
31357;BME280;60001;48.404;11.738;2022-11-27T01:13:11;97500.50;;;0.97;88.56
31357;BME280;60001;48.404;11.738;2022-11-27T01:14:43;97513.38;;;0.99;88.10
31357;BME280;60001;48.404;11.738;2022-11-27T01:16:20;97506.38;;;0.99;87.89
31357;BME280;60001;48.404;11.738;2022-11-27T01:17:52;97497.75;;;0.99;88.17
31357;BME280;60001;48.404;11.738;2022-11-27T01:19:24;97502.63;;;1.02;88.37
31357;BME280;60001;48.404;11.738;2022-11-27T01:20:55;97495.47;;;1.04;88.82
31357;BME280;60001;48.404;11.738;2022-11-27T01:22:26;97502.47;;;1.03;88.15
31357;BME280;60001;48.404;11.738;2022-11-27T01:23:59;97490.59;;;1.01;87.74
31357;BME280;60001;48.404;11.738;2022-11-27T01:25:33;97489.28;;;0.97;87.99
31357;BME280;60001;48.404;11.738;2022-11-27T01:27:04;97487.66;;;0.96;87.74
31357;BME280;60001;48.404;11.738;2022-11-27T01:28:37;97489.44;;;0.95;88.25
31357;BME280;60001;48.404;11.738;2022-11-27T01:30:12;97489.63;;;0.94;87.50
31357;BME280;60001;48.404;11.738;2022-11-27T01:31:44;97483.59;;;0.93;87.93
31357;BME280;60001;48.404;11.738;2022-11-27T01:33:17;97483.44;;;0.95;87.81
31357;BME280;60001;48.404;11.738;2022-11-27T01:34:49;97481.19;;;0.92;88.12
31357;BME280;60001;48.404;11.738;2022-11-27T01:36:21;97467.66;;;0.80;87.74
31357;BME280;60001;48.404;11.738;2022-11-27T01:37:53;97491.88;;;0.89;87.71
31357;BME280;60001;48.404;11.738;2022-11-27T01:39:25;97486.69;;;0.89;87.63
31357;BME280;60001;48.404;11.738;2022-11-27T01:40:57;97488.47;;;0.88;87.85
31357;BME280;60001;48.404;11.738;2022-11-27T01:42:28;97489.44;;;0.87;87.70
31357;BME280;60001;48.404;11.738;2022-11-27T01:44:02;97494.81;;;0.86;88.04
31357;BME280;60001;48.404;11.738;2022-11-27T01:45:35;97488.97;;;0.84;88.76
31357;BME280;60001;48.404;11.738;2022-11-27T01:47:14;97492.38;;;0.84;88.94
31357;BME280;60001;48.404;11.738;2022-11-27T01:48:49;97493.19;;;0.85;89.09
31357;BME280;60001;48.404;11.738;2022-11-27T01:50:27;97496.91;;;0.82;88.18
31357;BME280;60001;48.404;11.738;2022-11-27T01:52:03;97495.94;;;0.83;88.89
31357;BME280;60001;48.404;11.738;2022-11-27T01:53:36;97500.03;;;0.86;89.04
31357;BME280;60001;48.404;11.738;2022-11-27T01:55:13;97502.63;;;0.86;88.64
31357;BME280;60001;48.404;11.738;2022-11-27T01:56:52;97496.59;;;0.85;88.54
31357;BME280;60001;48.404;11.738;2022-11-27T01:58:28;97495.63;;;0.86;89.58
31357;BME280;60001;48.404;11.738;2022-11-27T02:00:03;97490.25;;;0.88;89.74
31357;BME280;60001;48.404;11.738;2022-11-27T02:01:37;97496.28;;;0.88;89.54
31357;BME280;60001;48.404;11.738;2022-11-27T02:03:09;97495.78;;;0.85;88.97
31357;BME280;60001;48.404;11.738;2022-11-27T02:04:41;97488.13;;;0.83;89.41
31357;BME280;60001;48.404;11.738;2022-11-27T02:06:13;97479.22;;;0.77;88.99
31357;BME280;60001;48.404;11.738;2022-11-27T02:07:46;97484.06;;;0.80;89.34
31357;BME280;60001;48.404;11.738;2022-11-27T02:09:18;97475.63;;;0.78;89.55
31357;BME280;60001;48.404;11.738;2022-11-27T02:10:53;97466.84;;;0.79;89.83
31357;BME280;60001;48.404;11.738;2022-11-27T02:12:30;97460.03;;;0.78;89.30
31357;BME280;60001;48.404;11.738;2022-11-27T02:14:12;97443.13;;;0.66;89.17
31357;BME280;60001;48.404;11.738;2022-11-27T02:15:55;97460.34;;;0.75;88.79
31357;BME280;60001;48.404;11.738;2022-11-27T02:17:35;97460.34;;;0.75;89.86
31357;BME280;60001;48.404;11.738;2022-11-27T02:19:24;97461.31;;;0.74;89.33
31357;BME280;60001;48.404;11.738;2022-11-27T02:21:05;97469.13;;;0.74;89.94
31357;BME280;60001;48.404;11.738;2022-11-27T02:22:56;97457.75;;;0.75;89.32
31357;BME280;60001;48.404;11.738;2022-11-27T02:24:47;97460.34;;;0.75;89.93
31357;BME280;60001;48.404;11.738;2022-11-27T02:26:39;97460.34;;;0.75;89.53
31357;BME280;60001;48.404;11.738;2022-11-27T02:28:40;97453.34;;;0.76;89.79
31357;BME280;60001;48.404;11.738;2022-11-27T02:30:15;97455.81;;;0.77;89.69
31357;BME280;60001;48.404;11.738;2022-11-27T02:31:55;97443.47;;;0.79;90.03
31357;BME280;60001;48.404;11.738;2022-11-27T02:33:32;97449.97;;;0.84;90.60
31357;BME280;60001;48.404;11.738;2022-11-27T02:35:11;97448.66;;;0.88;90.63
31357;BME280;60001;48.404;11.738;2022-11-27T02:36:52;97446.88;;;0.88;90.56
31357;BME280;60001;48.404;11.738;2022-11-27T02:38:29;97452.72;;;0.90;90.20
31357;BME280;60001;48.404;11.738;2022-11-27T02:40:08;97448.66;;;0.88;89.71
31357;BME280;60001;48.404;11.738;2022-11-27T02:41:48;97447.03;;;0.87;89.58
31357;BME280;60001;48.404;11.738;2022-11-27T02:43:26;97441.66;;;0.88;90.30
31357;BME280;60001;48.404;11.738;2022-11-27T02:45:04;97435.50;;;0.89;90.21
31357;BME280;60001;48.404;11.738;2022-11-27T02:46:40;97429.66;;;0.87;90.19
31357;BME280;60001;48.404;11.738;2022-11-27T02:48:16;97416.31;;;0.82;89.44
31357;BME280;60001;48.404;11.738;2022-11-27T02:49:51;97412.25;;;0.79;89.90
31357;BME280;60001;48.404;11.738;2022-11-27T02:51:34;97414.53;;;0.82;90.29
31357;BME280;60001;48.404;11.738;2022-11-27T02:53:16;97415.84;;;0.87;89.62
31357;BME280;60001;48.404;11.738;2022-11-27T02:54:52;97415.84;;;0.87;89.83
31357;BME280;60001;48.404;11.738;2022-11-27T02:56:28;97412.91;;;0.81;89.62
31357;BME280;60001;48.404;11.738;2022-11-27T02:58:07;97412.72;;;0.83;89.47
31357;BME280;60001;48.404;11.738;2022-11-27T02:59:43;97416.19;;;0.84;89.90
31357;BME280;60001;48.404;11.738;2022-11-27T03:01:19;97410.31;;;0.81;89.20
31357;BME280;60001;48.404;11.738;2022-11-27T03:02:59;97405.28;;;0.80;89.74
31357;BME280;60001;48.404;11.738;2022-11-27T03:04:38;97404.63;;;0.78;90.01
31357;BME280;60001;48.404;11.738;2022-11-27T03:06:19;97405.63;;;0.77;89.32
31357;BME280;60001;48.404;11.738;2022-11-27T03:08:00;97402.50;;;0.73;89.71
31357;BME280;60001;48.404;11.738;2022-11-27T03:09:36;97400.56;;;0.75;90.09
31357;BME280;60001;48.404;11.738;2022-11-27T03:11:12;97400.56;;;0.75;89.71
31357;BME280;60001;48.404;11.738;2022-11-27T03:12:45;97399.56;;;0.76;89.83
31357;BME280;60001;48.404;11.738;2022-11-27T03:14:18;97405.75;;;0.75;90.15
31357;BME280;60001;48.404;11.738;2022-11-27T03:16:02;97410.94;;;0.75;89.57
31357;BME280;60001;48.404;11.738;2022-11-27T03:17:50;97405.09;;;0.73;89.55
31357;BME280;60001;48.404;11.738;2022-11-27T03:19:31;97405.09;;;0.73;89.18
31357;BME280;60001;48.404;11.738;2022-11-27T03:21:16;97393.91;;;0.73;89.39
31357;BME280;60001;48.404;11.738;2022-11-27T03:22:52;97392.59;;;0.69;89.09
31357;BME280;60001;48.404;11.738;2022-11-27T03:24:26;97390.97;;;0.68;89.35
31357;BME280;60001;48.404;11.738;2022-11-27T03:25:58;97389.53;;;0.65;89.43
31357;BME280;60001;48.404;11.738;2022-11-27T03:27:34;97391.94;;;0.67;89.62
31357;BME280;60001;48.404;11.738;2022-11-27T03:29:12;97392.13;;;0.65;90.08
31357;BME280;60001;48.404;11.738;2022-11-27T03:30:45;97392.44;;;0.62;89.95
31357;BME280;60001;48.404;11.738;2022-11-27T03:32:17;97389.81;;;0.62;90.04
31357;BME280;60001;48.404;11.738;2022-11-27T03:33:49;97385.94;;;0.58;89.38
31357;BME280;60001;48.404;11.738;2022-11-27T03:35:25;97389.34;;;0.59;89.23
31357;BME280;60001;48.404;11.738;2022-11-27T03:36:57;97380.41;;;0.61;89.63
31357;BME280;60001;48.404;11.738;2022-11-27T03:38:28;97379.59;;;0.61;90.23
31357;BME280;60001;48.404;11.738;2022-11-27T03:40:00;97381.22;;;0.62;89.67
31357;BME280;60001;48.404;11.738;2022-11-27T03:41:40;97381.88;;;0.55;89.86
31357;BME280;60001;48.404;11.738;2022-11-27T03:43:17;97374.56;;;0.51;89.27
31357;BME280;60001;48.404;11.738;2022-11-27T03:45:00;97372.63;;;0.53;89.79
31357;BME280;60001;48.404;11.738;2022-11-27T03:46:44;97378.44;;;0.55;89.32
31357;BME280;60001;48.404;11.738;2022-11-27T03:48:26;97378.63;;;0.53;89.87
31357;BME280;60001;48.404;11.738;2022-11-27T03:50:16;97371.34;;;0.49;89.94
31357;BME280;60001;48.404;11.738;2022-11-27T03:51:57;97368.56;;;0.50;89.88
31357;BME280;60001;48.404;11.738;2022-11-27T03:53:47;97370.19;;;0.51;90.15
31357;BME280;60001;48.404;11.738;2022-11-27T03:55:30;97367.59;;;0.51;89.60
31357;BME280;60001;48.404;11.738;2022-11-27T03:57:14;97374.22;;;0.54;89.81
31357;BME280;60001;48.404;11.738;2022-11-27T03:58:53;97364.81;;;0.53;89.57
31357;BME280;60001;48.404;11.738;2022-11-27T04:00:32;97368.41;;;0.52;89.75
31357;BME280;60001;48.404;11.738;2022-11-27T04:02:05;97367.59;;;0.51;89.01
31357;BME280;60001;48.404;11.738;2022-11-27T04:03:37;97363.66;;;0.47;89.32
31357;BME280;60001;48.404;11.738;2022-11-27T04:05:09;97373.25;;;0.47;89.70
31357;BME280;60001;48.404;11.738;2022-11-27T04:06:40;97376.84;;;0.46;89.41
31357;BME280;60001;48.404;11.738;2022-11-27T04:08:13;97375.69;;;0.48;89.83
31357;BME280;60001;48.404;11.738;2022-11-27T04:09:44;97379.94;;;0.49;90.28
31357;BME280;60001;48.404;11.738;2022-11-27T04:11:16;97383.19;;;0.51;90.12
31357;BME280;60001;48.404;11.738;2022-11-27T04:12:47;97383.00;;;0.53;89.99
31357;BME280;60001;48.404;11.738;2022-11-27T04:14:19;97383.34;;;0.50;90.07
31357;BME280;60001;48.404;11.738;2022-11-27T04:15:51;97380.25;;;0.54;89.91
31357;BME280;60001;48.404;11.738;2022-11-27T04:17:23;97377.34;;;0.58;89.97
31357;BME280;60001;48.404;11.738;2022-11-27T04:18:55;97372.94;;;0.58;90.31
31357;BME280;60001;48.404;11.738;2022-11-27T04:20:26;97367.59;;;0.60;90.55
31357;BME280;60001;48.404;11.738;2022-11-27T04:21:58;97361.56;;;0.59;90.58
31357;BME280;60001;48.404;11.738;2022-11-27T04:23:31;97365.97;;;0.59;89.78
31357;BME280;60001;48.404;11.738;2022-11-27T04:25:03;97362.38;;;0.60;89.75
31357;BME280;60001;48.404;11.738;2022-11-27T04:26:35;97357.00;;;0.61;90.01
31357;BME280;60001;48.404;11.738;2022-11-27T04:28:07;97367.41;;;0.61;90.36
31357;BME280;60001;48.404;11.738;2022-11-27T04:29:38;97373.41;;;0.62;89.88
31357;BME280;60001;48.404;11.738;2022-11-27T04:31:09;97365.63;;;0.62;90.32
31357;BME280;60001;48.404;11.738;2022-11-27T04:32:41;97361.56;;;0.59;89.46
31357;BME280;60001;48.404;11.738;2022-11-27T04:34:13;97363.84;;;0.62;90.15
31357;BME280;60001;48.404;11.738;2022-11-27T04:35:43;97360.44;;;0.62;89.57
31357;BME280;60001;48.404;11.738;2022-11-27T04:37:15;97359.63;;;0.61;90.05
31357;BME280;60001;48.404;11.738;2022-11-27T04:38:48;97358.00;;;0.60;89.46
31357;BME280;60001;48.404;11.738;2022-11-27T04:40:20;97359.16;;;0.58;89.43
31357;BME280;60001;48.404;11.738;2022-11-27T04:41:52;97357.19;;;0.60;89.29
31357;BME280;60001;48.404;11.738;2022-11-27T04:43:24;97358.97;;;0.51;88.96
31357;BME280;60001;48.404;11.738;2022-11-27T04:44:55;97354.59;;;0.51;89.38
31357;BME280;60001;48.404;11.738;2022-11-27T04:46:27;97362.56;;;0.42;89.53
31357;BME280;60001;48.404;11.738;2022-11-27T04:47:59;97363.66;;;0.31;89.15
31357;BME280;60001;48.404;11.738;2022-11-27T04:49:31;97359.63;;;0.29;89.37
31357;BME280;60001;48.404;11.738;2022-11-27T04:51:03;97363.66;;;0.31;89.85
31357;BME280;60001;48.404;11.738;2022-11-27T04:52:34;97363.50;;;0.33;89.70
31357;BME280;60001;48.404;11.738;2022-11-27T04:54:08;97364.00;;;0.36;89.54
31357;BME280;60001;48.404;11.738;2022-11-27T04:55:39;97366.44;;;0.38;89.64
31357;BME280;60001;48.404;11.738;2022-11-27T04:57:11;97367.75;;;0.42;89.92
31357;BME280;60001;48.404;11.738;2022-11-27T04:58:43;97363.03;;;0.45;89.93
31357;BME280;60001;48.404;11.738;2022-11-27T05:00:15;97368.06;;;0.47;89.24
31357;BME280;60001;48.404;11.738;2022-11-27T05:01:47;97363.84;;;0.46;89.88
31357;BME280;60001;48.404;11.738;2022-11-27T05:03:19;97370.50;;;0.48;89.99
31357;BME280;60001;48.404;11.738;2022-11-27T05:04:51;97378.16;;;0.50;89.54
31357;BME280;60001;48.404;11.738;2022-11-27T05:06:22;97373.25;;;0.47;89.59
31357;BME280;60001;48.404;11.738;2022-11-27T05:07:55;97374.06;;;0.47;89.46
31357;BME280;60001;48.404;11.738;2022-11-27T05:09:28;97366.78;;;0.51;90.34
31357;BME280;60001;48.404;11.738;2022-11-27T05:11:01;97366.59;;;0.52;90.24
31357;BME280;60001;48.404;11.738;2022-11-27T05:12:33;97368.72;;;0.57;89.65
31357;BME280;60001;48.404;11.738;2022-11-27T05:14:05;97369.38;;;0.59;90.23
31357;BME280;60001;48.404;11.738;2022-11-27T05:15:46;97379.59;;;0.61;89.69
31357;BME280;60001;48.404;11.738;2022-11-27T05:17:18;97371.97;;;0.59;89.69
31357;BME280;60001;48.404;11.738;2022-11-27T05:18:48;97372.94;;;0.58;90.24
31357;BME280;60001;48.404;11.738;2022-11-27T05:20:20;97379.94;;;0.58;89.57
31357;BME280;60001;48.404;11.738;2022-11-27T05:21:52;97369.72;;;0.56;89.45
31357;BME280;60001;48.404;11.738;2022-11-27T05:23:25;97363.84;;;0.54;90.06
31357;BME280;60001;48.404;11.738;2022-11-27T05:24:58;97366.44;;;0.54;89.60
31357;BME280;60001;48.404;11.738;2022-11-27T05:26:30;97367.41;;;0.53;90.29
31357;BME280;60001;48.404;11.738;2022-11-27T05:28:01;97353.78;;;0.51;90.03
31357;BME280;60001;48.404;11.738;2022-11-27T05:29:34;97368.22;;;0.53;90.27
31357;BME280;60001;48.404;11.738;2022-11-27T05:31:06;97370.00;;;0.53;90.10
31357;BME280;60001;48.404;11.738;2022-11-27T05:32:37;97369.03;;;0.54;90.29
31357;BME280;60001;48.404;11.738;2022-11-27T05:34:09;97376.66;;;0.55;89.99
31357;BME280;60001;48.404;11.738;2022-11-27T05:35:41;97379.94;;;0.58;90.10
31357;BME280;60001;48.404;11.738;2022-11-27T05:37:12;97381.06;;;0.55;90.15
31357;BME280;60001;48.404;11.738;2022-11-27T05:38:44;97377.81;;;0.53;89.94
31357;BME280;60001;48.404;11.738;2022-11-27T05:40:17;97377.34;;;0.58;91.04
31357;BME280;60001;48.404;11.738;2022-11-27T05:41:49;97378.78;;;0.60;90.55
31357;BME280;60001;48.404;11.738;2022-11-27T05:43:21;97360.59;;;0.52;90.70
31357;BME280;60001;48.404;11.738;2022-11-27T05:44:52;97372.78;;;0.60;90.42
31357;BME280;60001;48.404;11.738;2022-11-27T05:46:23;97363.38;;;0.59;90.23
31357;BME280;60001;48.404;11.738;2022-11-27T05:47:54;97364.66;;;0.54;90.75
31357;BME280;60001;48.404;11.738;2022-11-27T05:49:26;97354.41;;;0.53;90.73
31357;BME280;60001;48.404;11.738;2022-11-27T05:50:57;97356.03;;;0.54;90.58
31357;BME280;60001;48.404;11.738;2022-11-27T05:52:29;97358.34;;;0.57;91.20
31357;BME280;60001;48.404;11.738;2022-11-27T05:54:01;97351.50;;;0.56;91.24
31357;BME280;60001;48.404;11.738;2022-11-27T05:55:34;97353.44;;;0.54;90.64
31357;BME280;60001;48.404;11.738;2022-11-27T05:57:06;97350.69;;;0.55;91.65
31357;BME280;60001;48.404;11.738;2022-11-27T05:58:39;97345.34;;;0.57;90.81
31357;BME280;60001;48.404;11.738;2022-11-27T06:00:12;97346.78;;;0.60;91.47
31357;BME280;60001;48.404;11.738;2022-11-27T06:01:44;97350.84;;;0.62;91.03
31357;BME280;60001;48.404;11.738;2022-11-27T06:03:16;97342.41;;;0.60;91.42
31357;BME280;60001;48.404;11.738;2022-11-27T06:04:48;97347.44;;;0.62;91.44
31357;BME280;60001;48.404;11.738;2022-11-27T06:06:20;97338.66;;;0.54;91.65
31357;BME280;60001;48.404;11.738;2022-11-27T06:07:51;97342.56;;;0.59;91.11
31357;BME280;60001;48.404;11.738;2022-11-27T06:09:23;97340.44;;;0.62;91.43
31357;BME280;60001;48.404;11.738;2022-11-27T06:10:56;97346.13;;;0.66;91.04
31357;BME280;60001;48.404;11.738;2022-11-27T06:12:30;97342.09;;;0.63;91.08
31357;BME280;60001;48.404;11.738;2022-11-27T06:14:02;97341.41;;;0.69;91.02
31357;BME280;60001;48.404;11.738;2022-11-27T06:15:36;97340.59;;;0.69;91.25
31357;BME280;60001;48.404;11.738;2022-11-27T06:17:08;97336.22;;;0.61;91.58
31357;BME280;60001;48.404;11.738;2022-11-27T06:18:39;97335.56;;;0.67;91.43
31357;BME280;60001;48.404;11.738;2022-11-27T06:20:11;97344.19;;;0.68;90.85
31357;BME280;60001;48.404;11.738;2022-11-27T06:21:43;97330.38;;;0.67;91.27
31357;BME280;60001;48.404;11.738;2022-11-27T06:23:15;97346.47;;;0.71;90.88
31357;BME280;60001;48.404;11.738;2022-11-27T06:24:47;97342.09;;;0.71;90.89
31357;BME280;60001;48.404;11.738;2022-11-27T06:26:22;97345.31;;;0.73;91.61
31357;BME280;60001;48.404;11.738;2022-11-27T06:27:54;97340.75;;;0.75;91.99
31357;BME280;60001;48.404;11.738;2022-11-27T06:29:26;97348.25;;;0.78;91.47
31357;BME280;60001;48.404;11.738;2022-11-27T06:30:58;97350.69;;;0.80;91.19
31357;BME280;60001;48.404;11.738;2022-11-27T06:32:30;97336.72;;;0.73;91.36
31357;BME280;60001;48.404;11.738;2022-11-27T06:34:02;97344.50;;;0.73;91.22
31357;BME280;60001;48.404;11.738;2022-11-27T06:35:34;97350.53;;;0.73;91.16
31357;BME280;60001;48.404;11.738;2022-11-27T06:37:06;97353.94;;;0.74;90.72
31357;BME280;60001;48.404;11.738;2022-11-27T06:38:38;97351.16;;;0.75;90.92
31357;BME280;60001;48.404;11.738;2022-11-27T06:40:11;97358.16;;;0.75;91.49
31357;BME280;60001;48.404;11.738;2022-11-27T06:41:44;97358.81;;;0.77;91.38
31357;BME280;60001;48.404;11.738;2022-11-27T06:43:16;97351.66;;;0.79;91.41
31357;BME280;60001;48.404;11.738;2022-11-27T06:44:46;97353.44;;;0.78;91.40
31357;BME280;60001;48.404;11.738;2022-11-27T06:46:20;97354.44;;;0.77;90.59
31357;BME280;60001;48.404;11.738;2022-11-27T06:47:52;97355.53;;;0.75;90.25
31357;BME280;60001;48.404;11.738;2022-11-27T06:49:26;97355.25;;;0.70;90.46
31357;BME280;60001;48.404;11.738;2022-11-27T06:50:59;97366.94;;;0.66;90.00
31357;BME280;60001;48.404;11.738;2022-11-27T06:52:31;97363.34;;;0.67;90.73
31357;BME280;60001;48.404;11.738;2022-11-27T06:54:03;97354.75;;;0.58;90.66
31357;BME280;60001;48.404;11.738;2022-11-27T06:55:36;97363.69;;;0.64;90.54
31357;BME280;60001;48.404;11.738;2022-11-27T06:57:10;97360.28;;;0.63;90.26
31357;BME280;60001;48.404;11.738;2022-11-27T06:58:42;97356.22;;;0.61;90.55
31357;BME280;60001;48.404;11.738;2022-11-27T07:00:14;97340.44;;;0.54;90.59
31357;BME280;60001;48.404;11.738;2022-11-27T07:01:46;97350.53;;;0.65;90.27
31357;BME280;60001;48.404;11.738;2022-11-27T07:03:18;97355.72;;;0.65;90.67
31357;BME280;60001;48.404;11.738;2022-11-27T07:04:48;97345.50;;;0.64;90.57
31357;BME280;60001;48.404;11.738;2022-11-27T07:06:22;97346.13;;;0.66;90.73
31357;BME280;60001;48.404;11.738;2022-11-27T07:07:54;97343.56;;;0.58;90.90
31357;BME280;60001;48.404;11.738;2022-11-27T07:09:25;97346.47;;;0.63;90.63
31357;BME280;60001;48.404;11.738;2022-11-27T07:11:00;97344.53;;;0.65;91.22
31357;BME280;60001;48.404;11.738;2022-11-27T07:12:33;97354.28;;;0.63;90.44
31357;BME280;60001;48.404;11.738;2022-11-27T07:14:05;97361.22;;;0.62;91.08
31357;BME280;60001;48.404;11.738;2022-11-27T07:15:36;97358.00;;;0.60;90.58
31357;BME280;60001;48.404;11.738;2022-11-27T07:17:08;97345.66;;;0.46;91.03
31357;BME280;60001;48.404;11.738;2022-11-27T07:18:41;97358.34;;;0.49;91.38
31357;BME280;60001;48.404;11.738;2022-11-27T07:20:13;97362.38;;;0.51;91.30
31357;BME280;60001;48.404;11.738;2022-11-27T07:21:45;97358.47;;;0.55;91.11
31357;BME280;60001;48.404;11.738;2022-11-27T07:23:17;97358.47;;;0.55;91.56
31357;BME280;60001;48.404;11.738;2022-11-27T07:24:49;97356.53;;;0.58;91.17
31357;BME280;60001;48.404;11.738;2022-11-27T07:26:22;97358.50;;;0.64;91.53
31357;BME280;60001;48.404;11.738;2022-11-27T07:27:56;97357.00;;;0.69;91.18
31357;BME280;60001;48.404;11.738;2022-11-27T07:29:27;97359.28;;;0.72;91.76
31357;BME280;60001;48.404;11.738;2022-11-27T07:31:00;97361.56;;;0.75;92.22
31357;BME280;60001;48.404;11.738;2022-11-27T07:32:32;97362.06;;;0.79;91.99
31357;BME280;60001;48.404;11.738;2022-11-27T07:34:03;97363.50;;;0.81;91.38
31357;BME280;60001;48.404;11.738;2022-11-27T07:35:35;97355.72;;;0.81;92.22
31357;BME280;60001;48.404;11.738;2022-11-27T07:37:07;97363.19;;;0.85;91.85
31357;BME280;60001;48.404;11.738;2022-11-27T07:38:39;97355.06;;;0.88;91.29
31357;BME280;60001;48.404;11.738;2022-11-27T07:40:11;97356.38;;;0.92;91.96
31357;BME280;60001;48.404;11.738;2022-11-27T07:41:44;97358.63;;;0.95;91.78
31357;BME280;60001;48.404;11.738;2022-11-27T07:43:17;97353.41;;;0.95;91.66
31357;BME280;60001;48.404;11.738;2022-11-27T07:44:48;97345.97;;;0.92;91.15
31357;BME280;60001;48.404;11.738;2022-11-27T07:46:21;97344.81;;;0.94;91.54
31357;BME280;60001;48.404;11.738;2022-11-27T07:47:54;97337.81;;;0.95;91.04
31357;BME280;60001;48.404;11.738;2022-11-27T07:49:26;97338.78;;;0.94;91.12
31357;BME280;60001;48.404;11.738;2022-11-27T07:50:58;97331.00;;;0.94;91.82
31357;BME280;60001;48.404;11.738;2022-11-27T07:52:30;97332.94;;;1.00;91.47
31357;BME280;60001;48.404;11.738;2022-11-27T07:54:01;97329.34;;;1.01;91.65
31357;BME280;60001;48.404;11.738;2022-11-27T07:55:36;97336.84;;;0.96;91.92
31357;BME280;60001;48.404;11.738;2022-11-27T07:57:08;97326.59;;;1.02;91.75
31357;BME280;60001;48.404;11.738;2022-11-27T07:58:41;97324.47;;;1.06;91.97
31357;BME280;60001;48.404;11.738;2022-11-27T08:00:14;97322.38;;;0.93;91.73
31357;BME280;60001;48.404;11.738;2022-11-27T08:01:46;97319.28;;;0.90;91.44
31357;BME280;60001;48.404;11.738;2022-11-27T08:03:18;97317.03;;;0.87;92.00
31357;BME280;60001;48.404;11.738;2022-11-27T08:04:50;97316.19;;;0.94;91.74
31357;BME280;60001;48.404;11.738;2022-11-27T08:06:23;97317.38;;;0.75;91.35
31357;BME280;60001;48.404;11.738;2022-11-27T08:07:58;97315.91;;;0.81;91.99
31357;BME280;60001;48.404;11.738;2022-11-27T08:09:30;97307.94;;;0.82;91.62
31357;BME280;60001;48.404;11.738;2022-11-27T08:11:01;97315.41;;;0.86;92.50
31357;BME280;60001;48.404;11.738;2022-11-27T08:12:36;97312.00;;;0.85;92.15
31357;BME280;60001;48.404;11.738;2022-11-27T08:14:12;97316.69;;;0.90;92.23
31357;BME280;60001;48.404;11.738;2022-11-27T08:15:45;97311.31;;;0.99;93.04
31357;BME280;60001;48.404;11.738;2022-11-27T08:17:17;97303.00;;;1.12;93.02